Latest Weather Observations for Mount Read

IDT60801

Issued at 2:35 pm EST Wednesday 20 August 2014 (issued every 30 minutes, with the page automatically refreshed every 10 minutes)

About weather observations | Map of weather stations | Latest weather observations for TAS | Other Formats
Station Details ID: 097085 Name: MOUNT READ Lat: -41.84 Lon: 145.54 Height: 1119.5 m
Data from the previous 72 hours. | See also: Recent months at Mount Read
Date/Time
EST
Temp
°C
App
Temp
°C
Dew
Point
Rel
Hum
%
Delta-T
°C
Wind Press
QNH
hPa
Press
MSL
hPa
Rain
since 9 am
mm
Dir
 
Spd
km/h
Gust
km/h
Spd
kts
Gust
kts
20/02:30pm 4.6 0.4 3.9 95 0.3 SSW 15 19 8 10 1024.5 - 0.0
20/02:00pm 5.0 2.0 4.1 94 0.4 S 9 15 5 8 1024.4 1026.8 0.0
20/01:30pm 4.6 2.5 3.7 94 0.4 SW 4 7 2 4 1024.2 - 0.0
20/01:00pm 4.2 1.4 2.9 91 0.6 SSE 7 13 4 7 1024.2 1026.7 0.0
20/12:30pm 4.2 0.4 4.1 99 0.0 S 13 19 7 10 1024.4 - 0.0
20/12:00pm 3.6 -1.4 3.5 99 0.0 S 19 24 10 13 1024.5 1027.0 0.0
20/11:30am 3.4 -1.7 3.3 99 0.0 S 19 26 10 14 1024.5 - 0.0
20/11:00am 2.8 -2.6 2.7 99 0.0 S 20 26 11 14 1024.5 1027.0 0.0
20/10:30am 2.6 -2.6 2.5 99 0.0 SSE 19 24 10 13 1024.4 - 0.0
20/10:00am 1.8 -3.5 1.7 99 0.0 S 19 26 10 14 1023.9 1026.4 0.0
20/09:30am 1.2 -5.2 1.1 99 0.0 S 24 30 13 16 1023.7 - 0.0
20/09:00am 0.9 -5.9 0.8 99 0.0 S 26 32 14 17 1023.6 1026.0 4.8
20/08:30am 0.6 -6.6 0.5 99 0.0 S 28 32 15 17 1023.1 - 4.8
20/08:00am 0.3 -7.7 0.2 99 0.0 S 32 35 17 19 1022.8 1025.2 4.8
20/07:30am 0.0 -7.7 -0.1 99 0.0 S 30 33 16 18 1022.5 - 4.8
20/07:00am -0.1 -7.1 -0.2 99 0.0 S 26 28 14 15 1022.1 1024.5 4.8
20/06:30am 0.1 -7.2 0.0 99 0.0 S 28 33 15 18 1021.8 - 4.8
20/06:00am 0.0 -7.3 -0.1 99 0.0 S 28 30 15 16 1021.7 1024.1 4.8
20/05:30am 0.1 -6.1 0.0 99 0.0 S 22 24 12 13 1021.8 - 4.6
20/05:00am 0.1 -6.1 0.0 99 0.0 S 22 26 12 14 1021.7 1024.1 4.6
20/04:30am 0.1 -5.5 0.0 99 0.0 S 19 22 10 12 1021.7 - 4.6
20/04:00am 0.1 -5.1 0.0 99 0.0 S 17 22 9 12 1021.6 1024.0 4.4
20/03:30am 0.1 -5.7 0.0 99 0.0 S 20 22 11 12 1021.7 - 4.2
20/03:00am 0.1 -5.5 0.0 99 0.0 S 19 22 10 12 1021.7 1024.1 4.2
20/02:30am 0.1 -5.1 0.0 99 0.0 S 17 20 9 11 1021.9 - 4.2
20/02:00am 0.0 -5.8 -0.1 99 0.0 S 20 24 11 13 1022.0 1024.4 4.0
20/01:30am 0.0 -5.2 -0.1 99 0.0 S 17 20 9 11 1021.9 - 4.0
20/01:00am 0.2 -5.0 0.1 99 0.0 S 17 24 9 13 1021.9 1024.3 3.8
20/12:30am 0.3 -4.5 0.2 99 0.0 S 15 19 8 10 1021.9 - 3.8
20/12:00am 0.2 -5.4 0.1 99 0.0 S 19 22 10 12 1021.8 1024.2 3.6
 
Date/Time
EST
Temp
°C
App
Temp
°C
Dew
Point
Rel
Hum
%
Delta-T
°C
Wind Press
QNH
hPa
Press
MSL
hPa
Rain
since 9 am
mm
Dir
 
Spd
km/h
Gust
km/h
Spd
kts
Gust
kts
19/11:30pm 0.3 -5.3 0.2 99 0.0 S 19 24 10 13 1021.9 - 3.6
19/11:00pm 0.3 -6.2 0.2 99 0.0 SSW 24 30 13 16 1021.8 1024.2 3.4
19/10:30pm 0.6 -5.5 0.5 99 0.0 SSW 22 30 12 16 1021.9 - 3.2
19/10:00pm 0.6 -5.5 0.5 99 0.0 S 22 30 12 16 1021.9 1024.3 2.6
19/09:30pm 0.6 -5.9 0.5 99 0.0 SSW 24 28 13 15 1021.9 - 2.4
19/09:00pm 0.8 -5.3 0.7 99 0.0 SSW 22 30 12 16 1021.9 1024.3 2.4
19/08:30pm 0.7 -4.8 0.6 99 0.0 SSW 19 22 10 12 1021.9 - 2.0
19/08:00pm 0.6 -5.1 0.5 99 0.0 SSW 20 24 11 13 1021.7 1024.1 1.6
19/07:30pm 0.6 -5.5 0.5 99 0.0 SSW 22 28 12 15 1021.5 - 1.6
19/07:00pm 0.7 -5.8 0.6 99 0.0 SSW 24 30 13 16 1021.5 1023.9 1.6
19/06:30pm 0.7 -5.4 0.6 99 0.0 SSW 22 26 12 14 1021.2 - 1.4
19/06:00pm 0.8 -5.3 0.7 99 0.0 SSW 22 26 12 14 1021.0 1023.4 1.4
19/05:30pm 1.2 -4.2 1.1 99 0.0 SSW 19 24 10 13 1021.0 - 1.4
19/05:00pm 1.2 -4.8 1.1 99 0.0 SSW 22 28 12 15 1020.8 1023.2 1.0
19/04:30pm 1.5 -4.4 1.4 99 0.0 SSW 22 32 12 17 1020.9 - 0.8
19/04:00pm 1.6 -3.8 1.5 99 0.0 SSW 19 26 10 14 1020.9 1023.3 0.8
19/03:30pm 1.6 -4.3 1.5 99 0.0 SSW 22 30 12 16 1020.9 - 0.8
19/03:00pm 1.8 -3.1 1.7 99 0.0 SSW 17 24 9 13 1021.0 1023.4 0.8
19/02:30pm 1.9 -3.4 1.8 99 0.0 SSW 19 22 10 12 1021.1 - 0.8
19/02:00pm 1.9 -3.4 1.8 99 0.0 SSW 19 26 10 14 1021.0 1023.4 0.8
19/01:30pm 2.3 -3.9 2.2 99 0.0 SW 24 32 13 17 1021.0 - 0.4
19/01:00pm 2.0 -5.0 1.9 99 0.0 SW 28 35 15 19 1021.1 1023.5 0.4
19/12:30pm 3.1 -0.9 3.0 99 0.0 SW 13 19 7 10 1021.7 - 0.2
19/12:00pm 2.8 -2.0 2.7 99 0.0 WSW 17 26 9 14 1021.9 1024.3 0.0
19/11:30am 2.6 -1.1 2.5 99 0.0 WSW 11 19 6 10 1022.1 - 0.0
19/11:00am 2.0 -0.8 1.9 99 0.0 S 6 9 3 5 1022.2 1024.7 0.0
19/10:30am 2.0 -1.4 1.9 99 0.0 SSW 9 13 5 7 1022.0 - 0.0
19/10:00am 1.2 -2.7 1.1 99 0.0 SW 11 17 6 9 1022.0 1024.4 0.0
19/09:30am 1.0 -3.7 0.9 99 0.0 SSW 15 19 8 10 1021.9 - 0.0
19/09:00am 0.4 -4.8 0.3 99 0.0 SSW 17 20 9 11 1021.9 1024.3 0.4
19/08:30am 0.0 -4.8 -0.1 99 0.0 SSW 15 19 8 10 1021.8 - 0.4
19/08:00am -0.1 -5.3 -0.2 99 0.0 S 17 26 9 14 1021.5 1023.9 0.4
19/07:30am -0.3 -2.3 -0.4 99 0.0 CALM 0 0 0 0 1021.2 - 0.4
19/07:00am -0.4 -2.5 -0.5 99 0.0 CALM 0 0 0 0 1021.1 1023.5 0.4
19/06:30am -0.7 -2.8 -0.8 99 0.0 CALM 0 0 0 0 1020.8 - 0.4
19/06:00am -0.8 -2.9 -0.9 99 0.0 CALM 0 0 0 0 1020.8 1023.2 0.4
19/05:30am -0.8 -2.9 -0.9 99 0.0 CALM 0 0 0 0 1020.7 - 0.4
19/05:00am -0.9 -3.0 -1.0 99 0.0 CALM 0 0 0 0 1020.8 1023.2 0.4
19/04:30am -0.9 -3.0 -1.0 99 0.0 CALM 0 0 0 0 1020.6 - 0.4
19/04:00am -0.5 -2.6 -0.6 99 0.0 CALM 0 0 0 0 1020.8 1023.2 0.4
19/03:30am -0.6 -2.7 -0.7 99 0.0 CALM 0 0 0 0 1020.6 - 0.4
19/03:00am -0.6 -2.7 -0.7 99 0.0 CALM 0 0 0 0 1020.9 1023.3 0.4
19/02:30am -0.3 -4.8 -0.4 99 0.0 S 13 19 7 10 1021.0 - 0.4
19/02:00am -0.4 -4.9 -0.5 99 0.0 S 13 19 7 10 1021.2 1023.6 0.4
19/01:30am 0.1 -5.1 0.0 99 0.0 SSW 17 19 9 10 1021.4 - 0.4
19/01:00am 0.2 -5.0 0.1 99 0.0 SSW 17 20 9 11 1021.5 1023.9 0.4
19/12:30am 0.4 -4.4 0.3 99 0.0 SSW 15 19 8 10 1021.7 - 0.2
19/12:00am 0.5 -3.5 0.4 99 0.0 SSW 11 15 6 8 1021.8 1024.2 0.2
 
Date/Time
EST
Temp
°C
App
Temp
°C
Dew
Point
Rel
Hum
%
Delta-T
°C
Wind Press
QNH
hPa
Press
MSL
hPa
Rain
since 9 am
mm
Dir
 
Spd
km/h
Gust
km/h
Spd
kts
Gust
kts
18/11:30pm 0.6 -3.0 0.5 99 0.0 SSW 9 13 5 7 1021.7 - 0.2
18/11:00pm 0.2 -2.5 0.1 99 0.0 S 4 7 2 4 1021.7 1024.1 0.2
18/10:30pm 1.0 -1.2 0.9 99 0.0 SSE 2 4 1 2 1021.7 - 0.2
18/10:00pm 0.6 -2.1 0.5 99 0.0 S 4 6 2 3 1021.8 1024.2 0.2
18/09:30pm 0.9 -2.1 0.8 99 0.0 SE 6 7 3 4 1021.8 - 0.2
18/09:00pm 0.9 -2.7 0.8 99 0.0 SSE 9 11 5 6 1021.7 1024.1 0.2
18/08:30pm 0.5 -2.8 0.4 99 0.0 SSE 7 13 4 7 1021.6 - 0.2
18/08:00pm 0.5 -3.1 0.4 99 0.0 S 9 13 5 7 1021.5 1023.9 0.2
18/07:30pm 0.7 -3.3 0.6 99 0.0 S 11 15 6 8 1021.1 - 0.2
18/07:00pm 0.8 -3.9 0.7 99 0.0 S 15 17 8 9 1021.0 1023.4 0.2
18/06:30pm 1.0 -3.3 0.9 99 0.0 S 13 17 7 9 1020.9 - 0.2
18/06:00pm 1.2 -3.5 1.1 99 0.0 S 15 19 8 10 1020.7 1023.1 0.2
18/05:30pm 1.2 -3.1 1.1 99 0.0 S 13 15 7 8 1020.5 - 0.2
18/05:00pm 1.8 -3.2 1.5 98 0.1 SSW 17 19 9 10 1020.1 1022.5 0.2
18/04:30pm 2.6 -2.0 1.7 94 0.4 SSW 15 17 8 9 1020.2 - 0.2
18/04:00pm 3.2 -0.6 2.0 92 0.5 SSW 11 13 6 7 1020.3 1022.7 0.2
18/03:30pm 3.5 0.2 2.5 93 0.4 S 9 13 5 7 1020.2 - 0.2
18/03:00pm 4.1 1.2 2.8 91 0.6 SSW 7 13 4 7 1020.3 1022.7 0.2
18/02:30pm 3.6 0.3 2.3 91 0.6 SW 9 13 5 7 1020.2 - 0.2
18/02:00pm 3.5 0.8 2.5 93 0.4 SSW 6 9 3 5 1020.2 1022.6 0.2
18/01:30pm 3.8 1.6 3.1 95 0.3 SE 4 7 2 4 1020.2 - 0.2
18/01:00pm 3.4 1.0 2.4 93 0.4 S 4 7 2 4 1020.3 1022.7 0.2
18/12:30pm 3.4 1.0 2.4 93 0.4 SE 4 7 2 4 1020.5 - 0.2
18/12:00pm 4.3 1.5 2.3 87 0.9 SSW 6 9 3 5 1020.7 1023.1 0.2
18/11:30am 4.2 1.8 2.1 86 0.9 W 4 6 2 3 1020.9 - 0.0
18/11:00am 3.8 0.9 1.4 84 1.0 W 6 9 3 5 1020.9 1023.3 0.0
18/10:30am 3.1 -0.1 1.0 86 0.9 W 7 13 4 7 1020.9 - 0.0
18/10:00am 3.3 0.9 2.1 92 0.5 NW 4 7 2 4 1020.9 1023.3 0.0
18/09:30am 2.3 -0.6 1.4 94 0.4 NNW 6 9 3 5 1020.9 - 0.0
18/09:00am 1.9 -0.3 1.0 94 0.4 W 2 4 1 2 1020.9 1023.3 0.2
18/08:30am 0.8 -1.9 0.2 96 0.2 WSW 4 4 2 2 1020.9 - 0.2
18/08:00am 0.4 -2.8 -0.2 96 0.2 W 6 7 3 4 1020.8 1023.2 0.0
18/07:30am 0.4 -2.3 0.0 97 0.2 SSW 4 7 2 4 1020.5 - 0.0
18/07:00am 0.1 -1.9 0.0 99 0.0 CALM 0 0 0 0 1020.1 1022.5 0.0
18/06:30am 0.8 -1.1 0.7 99 0.0 CALM 0 0 0 0 1019.8 - 0.0
18/06:00am -1.1 -3.3 -1.2 99 0.0 CALM 0 0 0 0 1019.6 1021.9 0.0
18/05:30am -1.1 -3.3 -1.2 99 0.0 CALM 0 0 0 0 1019.5 - 0.0
18/05:00am -1.0 -3.1 -1.1 99 0.0 CALM 0 0 0 0 1019.2 1021.6 0.0
18/04:30am -0.9 -3.0 -1.0 99 0.0 CALM 0 0 0 0 1019.1 - 0.0
18/04:00am -0.6 -2.7 -0.7 99 0.0 CALM 0 0 0 0 1019.0 1021.3 0.0
18/03:30am -0.4 -2.5 -0.5 99 0.0 CALM 0 0 0 0 1018.9 - 0.0
18/03:00am -0.6 -2.7 -0.7 99 0.0 CALM 0 0 0 0 1019.2 1021.6 0.0
18/02:30am 0.2 -3.1 0.1 99 0.0 SSW 7 9 4 5 1019.5 - 0.0
18/02:00am -0.2 -3.9 -0.3 99 0.0 SSW 9 9 5 5 1019.8 1022.1 0.0
18/01:30am 0.2 -1.8 0.1 99 0.0 CALM 0 0 0 0 1019.8 - 0.0
18/01:00am 0.3 -1.7 0.2 99 0.0 CALM 0 0 0 0 1019.8 1022.1 0.0
18/12:30am 0.3 -1.7 0.2 99 0.0 CALM 0 0 0 0 1019.6 - 0.0
18/12:00am -0.1 -2.1 -0.2 99 0.0 CALM 0 0 0 0 1019.3 1021.7 0.0
 
Date/Time
EST
Temp
°C
App
Temp
°C
Dew
Point
Rel
Hum
%
Delta-T
°C
Wind Press
QNH
hPa
Press
MSL
hPa
Rain
since 9 am
mm
Dir
 
Spd
km/h
Gust
km/h
Spd
kts
Gust
kts
17/11:30pm -0.8 -2.9 -0.9 99 0.0 CALM 0 0 0 0 1019.5 - 0.0
17/11:00pm -0.7 -2.8 -0.8 99 0.0 CALM 0 0 0 0 1019.5 1021.8 0.0
17/10:30pm -0.6 -5.2 -0.7 99 0.0 SSW 13 19 7 10 1019.7 - 0.0
17/10:00pm -0.5 -5.4 -0.6 99 0.0 SSW 15 17 8 9 1019.6 1021.9 0.0
17/09:30pm 0.1 -3.2 0.0 99 0.0 S 7 9 4 5 1019.3 - 0.0
17/09:00pm 0.5 -1.4 0.4 99 0.0 CALM 0 4 0 2 1019.3 1021.7 0.0
17/08:30pm 0.0 -3.3 -0.1 99 0.0 S 7 9 4 5 1019.3 - 0.0
17/08:00pm 0.0 -3.3 -0.1 99 0.0 S 7 9 4 5 1019.3 1021.7 0.0
17/07:30pm 0.1 -3.0 0.0 99 0.0 S 6 9 3 5 1019.2 - 0.0
17/07:00pm -0.4 -3.8 -0.5 99 0.0 SW 7 11 4 6 1019.0 1021.3 0.0
17/06:30pm -0.5 -4.7 -0.6 99 0.0 SSW 11 13 6 7 1018.6 - 0.0
17/06:00pm -0.2 -4.7 -0.3 99 0.0 SSW 13 15 7 8 1018.3 1020.7 0.0
17/05:30pm 0.3 -4.5 0.2 99 0.0 SSW 15 19 8 10 1018.1 - 0.0
17/05:00pm 0.6 -4.9 0.5 99 0.0 SSW 19 20 10 11 1017.9 1020.2 0.0
17/04:30pm 1.4 -3.6 1.3 99 0.0 SSW 17 20 9 11 1017.7 - 0.0
17/04:00pm 2.0 -3.3 1.9 99 0.0 SSW 19 20 10 11 1017.4 1019.7 0.0
17/03:30pm 1.8 -3.1 1.7 99 0.0 SSW 17 19 9 10 1017.4 - 0.0
17/03:00pm 2.3 -2.6 2.2 99 0.0 SSW 17 20 9 11 1017.2 1019.5 0.0

Other Formats:

Comma delimited format used in spreadsheet applications
http://www.bom.gov.au/fwo/IDT60801/IDT60801.95952.axf

JavaScript Object Notation format (JSON) in row-major order
http://www.bom.gov.au/fwo/IDT60801/IDT60801.95952.json